Time;durP1;ratioP1;P1;durP2;ratioP2;P2;SDS_P1;SDS_P2;PMS_P1;PMS_P2;Temp;Humidity;BMP_temperature;BMP_pressure;BME280_temperature;BME280_humidity;BME280_pressure;Samples;Min_cycle;Max_cycle;Signal;HPM_P1;HPM_P2
2022/05/11 00:00:29;;;;;;;7.77;6.23;;;16.90;99.90;;;;;;4995413;28;20272;-63
2022/05/11 00:02:55;;;;;;;6.93;6.10;;;16.90;99.90;;;;;;4995110;28;20189;-63
2022/05/11 00:05:20;;;;;;;6.73;6.13;;;16.80;99.90;;;;;;4995004;28;20212;-63
2022/05/11 00:07:49;;;;;;;7.40;6.20;;;16.80;99.90;;;;;;4995464;28;20180;-68
2022/05/11 00:10:15;;;;;;;8.17;6.20;;;16.80;99.90;;;;;;4995645;28;20228;-62
2022/05/11 00:12:42;;;;;;;6.37;5.77;;;16.80;99.90;;;;;;4995228;28;20713;-63
2022/05/11 00:15:20;;;;;;;7.93;6.23;;;16.70;99.90;;;;;;4994992;28;20181;-63
2022/05/11 00:17:45;;;;;;;6.37;5.60;;;16.70;99.90;;;;;;4994961;28;20188;-63
2022/05/11 00:20:12;;;;;;;6.80;6.20;;;16.60;99.90;;;;;;4995154;28;20178;-64
2022/05/11 00:22:39;;;;;;;6.70;6.10;;;16.60;99.90;;;;;;4994967;28;20205;-62
2022/05/11 00:25:07;;;;;;;6.50;5.90;;;16.60;99.90;;;;;;4994600;28;20208;-62
2022/05/11 00:27:33;;;;;;;6.80;6.20;;;16.60;99.90;;;;;;4994961;28;20177;-62
2022/05/11 00:29:58;;;;;;;8.93;6.13;;;16.60;99.90;;;;;;4994925;28;20178;-63
2022/05/11 00:32:25;;;;;;;6.20;5.60;;;16.60;99.90;;;;;;4994712;28;20177;-63
2022/05/11 00:34:52;;;;;;;7.40;5.87;;;16.60;99.90;;;;;;4994706;28;20519;-63
2022/05/11 00:37:18;;;;;;;6.33;5.73;;;16.50;99.90;;;;;;4994655;28;20265;-63
2022/05/11 00:39:44;;;;;;;6.87;6.17;;;16.40;99.90;;;;;;4994778;28;20188;-63
2022/05/11 00:42:10;;;;;;;6.53;5.93;;;16.40;99.90;;;;;;4994575;28;20185;-63
2022/05/11 00:44:36;;;;;;;6.70;6.10;;;16.40;99.90;;;;;;4994095;28;20216;-64
2022/05/11 00:47:38;;;;;;;6.50;5.90;;;16.30;99.90;;;;;;4994516;28;20606;-63
2022/05/11 00:50:13;;;;;;;6.30;5.80;;;16.30;99.90;;;;;;4933557;29;20194;-62
2022/05/11 00:52:59;;;;;;;7.03;6.17;;;17.10;99.90;;;;;;4934227;29;20202;-62
2022/05/11 00:55:52;;;;;;;6.20;5.60;;;16.20;99.90;;;;;;4934054;29;20187;-63
2022/05/11 00:58:33;;;;;;;6.40;5.80;;;16.10;99.90;;;;;;4934170;29;20186;-63
2022/05/11 01:00:58;;;;;;;6.70;6.00;;;16.10;99.90;;;;;;4934160;29;20553;-63
2022/05/11 01:03:30;;;;;;;6.97;6.30;;;16.10;99.90;;;;;;4933727;29;20203;-62
2022/05/11 01:05:56;;;;;;;7.10;6.40;;;16.00;99.90;;;;;;4934168;29;20572;-63
2022/05/11 01:08:22;;;;;;;8.10;7.30;;;16.10;99.90;;;;;;4934068;29;20183;-63
2022/05/11 01:10:49;;;;;;;7.30;6.60;;;16.10;99.90;;;;;;4933997;29;20666;-62
2022/05/11 01:13:17;;;;;;;6.83;6.17;;;16.10;99.90;;;;;;4933920;29;20600;-62
2022/05/11 01:15:47;;;;;;;6.70;6.00;;;16.10;99.90;;;;;;4933655;29;20176;-62
2022/05/11 01:18:14;;;;;;;6.90;6.20;;;16.00;99.90;;;;;;4917860;29;20186;-62
2022/05/11 01:20:39;;;;;;;6.90;6.30;;;16.00;99.90;;;;;;4933905;29;20202;-64
2022/05/11 01:23:17;;;;;;;6.77;6.10;;;16.00;99.90;;;;;;4933721;29;20229;-63
2022/05/11 01:25:43;;;;;;;7.93;7.23;;;15.90;99.90;;;;;;4965118;28;20788;-62
2022/05/11 01:28:12;;;;;;;8.07;7.27;;;15.90;99.90;;;;;;4993779;28;20184;-62
2022/05/11 01:30:48;;;;;;;7.90;7.10;;;15.90;99.90;;;;;;4993772;28;20516;-63
2022/05/11 01:33:17;;;;;;;8.13;6.90;;;15.90;99.90;;;;;;4993551;28;20659;-63
2022/05/11 01:35:46;;;;;;;8.00;7.30;;;15.80;99.90;;;;;;4993288;28;20201;-62
2022/05/11 01:38:27;;;;;;;7.63;6.93;;;15.80;99.90;;;;;;4993598;28;20173;-62
2022/05/11 01:40:53;;;;;;;8.83;7.03;;;15.80;99.90;;;;;;4993629;28;20666;-63
2022/05/11 01:43:29;;;;;;;8.60;7.10;;;15.80;99.90;;;;;;4993363;28;20193;-64
2022/05/11 01:45:55;;;;;;;8.40;7.57;;;15.80;99.90;;;;;;4993540;28;20213;-62
2022/05/11 01:48:21;;;;;;;8.47;7.03;;;15.70;99.90;;;;;;4993210;28;20310;-63
2022/05/11 01:50:47;;;;;;;7.90;7.20;;;15.70;99.90;;;;;;4993424;28;20166;-62
2022/05/11 01:53:13;;;;;;;7.80;6.53;;;15.70;99.90;;;;;;4993134;28;20205;-62
2022/05/11 01:55:39;;;;;;;7.70;6.97;;;15.70;99.90;;;;;;4993198;28;20177;-62
2022/05/11 01:58:07;;;;;;;8.80;6.57;;;15.70;99.90;;;;;;4993257;28;20591;-63
2022/05/11 02:00:33;;;;;;;7.77;6.63;;;15.70;99.90;;;;;;4993101;28;20193;-62
2022/05/11 02:02:59;;;;;;;7.87;7.17;;;15.70;99.90;;;;;;4993092;28;20204;-62
2022/05/11 02:08:09;;;;;;;9.67;8.77;;;15.70;99.90;;;;;;4993115;28;20192;-62
2022/05/11 02:10:35;;;;;;;11.67;10.57;;;15.80;99.90;;;;;;4993113;28;20175;-63
2022/05/11 02:13:00;;;;;;;11.87;10.87;;;15.80;99.90;;;;;;4992987;28;20284;-63
2022/05/11 02:15:26;;;;;;;12.47;11.17;;;15.80;99.90;;;;;;4992610;28;20169;-63
2022/05/11 02:17:53;;;;;;;12.30;11.20;;;15.70;99.90;;;;;;4992892;28;20534;-62
2022/05/11 02:20:20;;;;;;;11.83;10.63;;;15.70;99.90;;;;;;4992930;28;20173;-62
2022/05/11 02:22:47;;;;;;;11.57;10.57;;;15.70;99.90;;;;;;4992818;28;20223;-62
2022/05/11 02:25:15;;;;;;;10.70;9.80;;;15.70;99.90;;;;;;4992472;28;20311;-62
2022/05/11 02:27:41;;;;;;;11.00;7.93;;;15.60;99.90;;;;;;4992721;28;20179;-63
2022/05/11 02:30:10;;;;;;;9.87;8.87;;;15.60;99.90;;;;;;4992661;28;20260;-63
2022/05/11 02:32:36;;;;;;;12.00;10.03;;;15.50;99.90;;;;;;4992596;28;20213;-62
2022/05/11 02:35:13;;;;;;;10.77;9.77;;;15.40;99.90;;;;;;4992364;28;20184;-63
2022/05/11 02:37:55;;;;;;;11.10;10.00;;;15.40;99.90;;;;;;4992647;28;20704;-62
2022/05/11 02:40:30;;;;;;;11.40;10.30;;;15.40;99.90;;;;;;4992555;28;20573;-63
2022/05/11 02:42:56;;;;;;;11.17;10.07;;;15.40;99.90;;;;;;4992535;28;20234;-62
2022/05/11 02:45:23;;;;;;;11.27;10.17;;;15.30;99.90;;;;;;4992238;28;20211;-63
2022/05/11 02:47:50;;;;;;;11.47;10.27;;;15.30;99.90;;;;;;4992423;28;20173;-64
2022/05/11 02:50:22;;;;;;;13.23;11.10;;;15.30;99.90;;;;;;4992596;28;20182;-62
2022/05/11 02:52:48;;;;;;;11.40;10.23;;;15.20;99.90;;;;;;4992314;28;20298;-63
2022/05/11 02:55:14;;;;;;;10.30;9.30;;;15.20;99.90;;;;;;4990948;28;20276;-63
2022/05/11 02:57:40;;;;;;;9.43;8.63;;;15.10;99.90;;;;;;4992384;28;20188;-63
2022/05/11 03:00:09;;;;;;;8.57;7.60;;;15.10;99.90;;;;;;4992195;28;20187;-63
2022/05/11 03:02:36;;;;;;;8.43;7.63;;;15.10;99.90;;;;;;4992292;28;20175;-63
2022/05/11 03:05:03;;;;;;;9.37;8.43;;;15.00;99.90;;;;;;4991944;28;20213;-62
2022/05/11 03:07:29;;;;;;;9.53;8.50;;;15.00;99.90;;;;;;4992154;28;20180;-63
2022/05/11 03:09:54;;;;;;;9.70;8.70;;;15.00;99.90;;;;;;4992353;28;20180;-63
2022/05/11 03:12:22;;;;;;;9.30;8.27;;;15.00;99.90;;;;;;4992404;28;20245;-60
2022/05/11 03:14:49;;;;;;;11.77;8.60;;;14.90;99.90;;;;;;4996042;28;20270;-62
2022/05/11 03:17:15;;;;;;;9.07;8.27;;;14.90;99.90;;;;;;4996211;28;20183;-62
2022/05/11 03:19:41;;;;;;;9.40;8.60;;;14.90;99.90;;;;;;4996119;28;20209;-62
2022/05/11 03:22:06;;;;;;;10.43;9.33;;;14.90;99.90;;;;;;4996134;28;20182;-62
2022/05/11 03:24:32;;;;;;;11.17;10.10;;;14.90;99.90;;;;;;4995723;28;20231;-62
2022/05/11 03:26:57;;;;;;;10.50;9.60;;;14.90;99.90;;;;;;4996013;28;20203;-63
2022/05/11 03:29:23;;;;;;;11.93;10.93;;;14.80;99.90;;;;;;4996077;28;20208;-62
2022/05/11 03:34:37;;;;;;;12.23;11.03;;;14.90;99.90;;;;;;4995518;28;20282;-63
2022/05/11 03:37:07;;;;;;;11.93;9.80;;;14.90;99.90;;;;;;4995842;28;20176;-63
2022/05/11 03:39:33;;;;;;;9.93;9.03;;;14.90;99.90;;;;;;4995891;28;20527;-62
2022/05/11 03:41:59;;;;;;;9.97;8.87;;;14.80;99.90;;;;;;4995762;28;20639;-63
2022/05/11 03:44:26;;;;;;;9.33;8.43;;;14.80;99.90;;;;;;4995351;28;20215;-62
2022/05/11 03:46:52;;;;;;;9.57;7.93;;;14.90;99.90;;;;;;4995547;28;20715;-62
2022/05/11 03:49:17;;;;;;;9.63;7.83;;;14.80;99.90;;;;;;4995586;28;20171;-62
2022/05/11 03:51:44;;;;;;;8.00;7.20;;;14.80;99.90;;;;;;4995650;28;20180;-63
2022/05/11 03:54:09;;;;;;;8.23;7.33;;;14.80;99.90;;;;;;4995175;28;20298;-62
2022/05/11 03:56:35;;;;;;;7.80;7.10;;;14.80;99.90;;;;;;4995583;28;20658;-63
2022/05/11 03:59:01;;;;;;;8.20;6.83;;;14.80;99.90;;;;;;4995500;28;20175;-62
2022/05/11 04:01:26;;;;;;;7.53;6.83;;;14.80;99.90;;;;;;4995479;28;20295;-62
2022/05/11 04:03:52;;;;;;;8.03;7.33;;;14.80;99.90;;;;;;4994842;28;20309;-62
2022/05/11 04:06:18;;;;;;;7.33;6.50;;;14.80;99.90;;;;;;4995302;28;20199;-62
2022/05/11 04:08:43;;;;;;;7.30;6.70;;;14.80;99.90;;;;;;4995378;28;20169;-63
2022/05/11 04:11:11;;;;;;;7.43;6.50;;;14.80;99.90;;;;;;4995251;28;20173;-62
2022/05/11 04:13:36;;;;;;;8.10;6.57;;;14.80;99.90;;;;;;4994865;28;20727;-62
2022/05/11 04:16:02;;;;;;;7.03;6.07;;;14.80;99.90;;;;;;4995095;28;20251;-62
2022/05/11 04:18:27;;;;;;;6.97;6.27;;;14.90;99.90;;;;;;4995116;28;20287;-62
2022/05/11 04:20:53;;;;;;;7.10;6.50;;;15.00;99.90;;;;;;4995138;28;20257;-62
2022/05/11 04:23:18;;;;;;;7.53;6.60;;;15.00;99.90;;;;;;4994901;28;20200;-63
2022/05/11 04:25:44;;;;;;;6.63;6.03;;;15.00;99.90;;;;;;4993456;28;20177;-62
2022/05/11 04:28:12;;;;;;;6.83;6.23;;;15.00;99.90;;;;;;4994870;28;20176;-62
2022/05/11 04:30:39;;;;;;;6.93;6.23;;;15.00;99.90;;;;;;4994832;28;20203;-63
2022/05/11 04:33:05;;;;;;;7.43;6.73;;;15.10;99.90;;;;;;4994882;28;20635;-62
2022/05/11 04:35:31;;;;;;;6.83;6.23;;;15.10;99.90;;;;;;4994629;28;20226;-62
2022/05/11 04:37:58;;;;;;;8.00;5.80;;;15.20;99.90;;;;;;4994777;28;20181;-62
2022/05/11 04:40:24;;;;;;;7.73;6.17;;;15.30;99.90;;;;;;4994708;28;20179;-63
2022/05/11 04:42:50;;;;;;;6.60;6.00;;;15.30;99.90;;;;;;4994680;28;20271;-62
2022/05/11 04:45:16;;;;;;;6.37;5.37;;;15.20;99.90;;;;;;4994248;28;20205;-62
2022/05/11 04:47:42;;;;;;;6.17;5.67;;;15.20;99.90;;;;;;4994580;28;20180;-62
2022/05/11 04:50:08;;;;;;;5.80;5.30;;;15.30;99.90;;;;;;4994522;28;20531;-62
2022/05/11 04:52:34;;;;;;;6.20;5.67;;;15.40;99.90;;;;;;4994480;28;20534;-63
2022/05/11 04:55:00;;;;;;;6.10;5.60;;;15.40;99.90;;;;;;4994200;28;20196;-62
2022/05/11 04:57:25;;;;;;;6.73;6.00;;;15.50;99.90;;;;;;4994353;28;20228;-63
2022/05/11 04:59:51;;;;;;;6.50;5.63;;;15.50;99.90;;;;;;4994319;28;20173;-62
2022/05/11 05:02:19;;;;;;;6.10;5.50;;;15.70;99.90;;;;;;4994388;28;20236;-62
2022/05/11 05:04:45;;;;;;;6.40;5.80;;;15.70;99.90;;;;;;4993894;28;20212;-62
2022/05/11 05:07:11;;;;;;;6.50;5.83;;;15.80;99.90;;;;;;4993757;28;20554;-62
2022/05/11 05:09:36;;;;;;;5.83;5.33;;;17.60;99.90;;;;;;4994141;28;20221;-62
2022/05/11 05:12:03;;;;;;;6.20;5.50;;;16.10;99.90;;;;;;4994187;28;20257;-63
2022/05/11 05:14:29;;;;;;;6.67;6.07;;;16.10;99.90;;;;;;4993643;28;20193;-61
2022/05/11 05:17:03;;;;;;;6.30;5.70;;;16.10;99.90;;;;;;4994166;28;20312;-63
2022/05/11 05:19:29;;;;;;;6.87;5.60;;;16.20;99.90;;;;;;4993968;28;20260;-63
2022/05/11 05:21:55;;;;;;;5.60;5.10;;;16.20;99.90;;;;;;4994010;28;20588;-63
2022/05/11 05:24:20;;;;;;;6.57;5.53;;;16.30;99.90;;;;;;4993517;28;20695;-63
2022/05/11 05:26:46;;;;;;;6.10;5.60;;;16.50;99.90;;;;;;4993842;28;20627;-62
2022/05/11 05:31:55;;;;;;;6.60;5.83;;;16.70;99.90;;;;;;4993868;28;20656;-63
2022/05/11 05:34:21;;;;;;;6.20;5.60;;;16.80;99.90;;;;;;4993269;28;20283;-63
2022/05/11 05:36:46;;;;;;;6.17;5.53;;;16.90;99.90;;;;;;4992027;28;20188;-63
2022/05/11 05:39:12;;;;;;;6.00;5.50;;;16.90;99.90;;;;;;4993589;28;20252;-63
2022/05/11 05:41:37;;;;;;;6.00;5.50;;;16.80;99.90;;;;;;4993529;28;20264;-62
2022/05/11 05:44:06;;;;;;;5.70;5.20;;;16.70;99.90;;;;;;4993170;28;20248;-63
2022/05/11 05:46:36;;;;;;;5.93;5.33;;;16.60;99.90;;;;;;4993456;28;20193;-63
2022/05/11 05:49:03;;;;;;;6.27;5.77;;;16.70;99.90;;;;;;4993393;28;20171;-63
2022/05/11 05:51:28;;;;;;;5.27;4.83;;;16.80;99.90;;;;;;4993402;28;20197;-63
2022/05/11 05:53:55;;;;;;;5.93;5.43;;;16.80;99.90;;;;;;4992887;28;20248;-62
2022/05/11 05:56:21;;;;;;;6.33;5.43;;;16.70;99.90;;;;;;4993272;28;20173;-63
2022/05/11 05:58:46;;;;;;;6.37;5.77;;;16.70;99.90;;;;;;4993338;28;20228;-62
2022/05/11 06:01:16;;;;;;;6.70;6.03;;;16.80;99.90;;;;;;4993139;28;20185;-61
2022/05/11 06:03:42;;;;;;;6.80;6.20;;;16.90;99.90;;;;;;4992561;28;20205;-63
2022/05/11 06:06:08;;;;;;;6.07;5.57;;;16.90;99.90;;;;;;4993084;28;20170;-63
2022/05/11 06:08:34;;;;;;;5.90;5.40;;;16.90;99.90;;;;;;4993661;28;20567;-62
2022/05/11 06:11:01;;;;;;;6.53;5.93;;;17.00;99.90;;;;;;4975438;28;20576;-60
2022/05/11 06:13:27;;;;;;;6.80;6.10;;;17.10;99.90;;;;;;4992731;28;20200;-62
2022/05/11 06:15:55;;;;;;;6.33;5.80;;;17.20;99.90;;;;;;4992869;28;20174;-62
2022/05/11 06:18:22;;;;;;;6.20;5.63;;;17.30;99.90;;;;;;4992340;28;20258;-63
2022/05/11 06:20:51;;;;;;;6.30;5.70;;;17.40;99.90;;;;;;4992637;28;20187;-64
2022/05/11 06:23:21;;;;;;;6.23;5.63;;;17.50;99.90;;;;;;4992334;28;20256;-62
2022/05/11 06:25:50;;;;;;;6.40;5.80;;;17.70;99.90;;;;;;4992755;28;20187;-64
2022/05/11 06:28:17;;;;;;;5.80;5.30;;;17.80;99.90;;;;;;4992376;28;20280;-61
2022/05/11 06:30:42;;;;;;;6.20;5.60;;;17.80;99.90;;;;;;4992525;28;20180;-63
2022/05/11 06:33:08;;;;;;;6.27;5.67;;;17.90;99.90;;;;;;4992519;28;20196;-63
2022/05/11 06:35:33;;;;;;;5.70;5.20;;;17.90;99.90;;;;;;4992017;28;20203;-62
2022/05/11 06:38:04;;;;;;;5.67;5.07;;;17.80;99.90;;;;;;4992533;28;20176;-63
2022/05/11 06:40:30;;;;;;;5.77;5.27;;;18.00;99.90;;;;;;4992011;28;20187;-61
2022/05/11 06:42:55;;;;;;;5.90;5.30;;;18.10;99.90;;;;;;4992422;28;20193;-62
2022/05/11 06:45:23;;;;;;;6.00;5.50;;;18.20;99.90;;;;;;4992254;28;20205;-62
2022/05/11 06:47:49;;;;;;;6.97;5.93;;;18.30;99.90;;;;;;4991758;28;20558;-62
2022/05/11 06:50:15;;;;;;;7.20;5.30;;;18.30;99.90;;;;;;4992401;28;20235;-61
2022/05/11 06:52:41;;;;;;;6.00;5.03;;;18.40;99.90;;;;;;4992227;28;20700;-61
2022/05/11 07:00:35;;;;;;;5.90;5.40;;;18.60;99.90;;;;;;4992730;28;20180;-62
2022/05/11 07:03:01;;;;;;;5.67;5.17;;;18.90;99.90;;;;;;4992232;28;20201;-62
2022/05/11 07:05:29;;;;;;;5.83;5.27;;;18.90;99.90;;;;;;4991811;28;20209;-61
2022/05/11 07:07:54;;;;;;;5.47;5.00;;;19.00;99.90;;;;;;4992306;28;20181;-61
2022/05/11 07:10:21;;;;;;;5.67;4.97;;;19.00;99.90;;;;;;4992384;28;20554;-61
2022/05/11 07:12:47;;;;;;;5.93;5.33;;;19.10;99.90;;;;;;4992304;28;20193;-62
2022/05/11 07:15:16;;;;;;;5.30;4.87;;;19.30;99.90;;;;;;4991943;28;20257;-62
2022/05/11 07:17:50;;;;;;;5.57;5.07;;;19.50;99.90;;;;;;4992211;28;20178;-62
2022/05/11 07:20:33;;;;;;;5.77;5.17;;;19.70;99.90;;;;;;4991486;28;20543;-60
2022/05/11 07:23:01;;;;;;;5.70;5.20;;;19.80;99.90;;;;;;4991091;28;20197;-61
2022/05/11 07:25:27;;;;;;;5.53;5.03;;;20.00;99.90;;;;;;4991864;28;20206;-62
2022/05/11 07:27:54;;;;;;;5.77;5.00;;;20.10;99.90;;;;;;4992046;28;20227;-61
2022/05/11 07:30:42;;;;;;;5.83;5.33;;;20.10;99.90;;;;;;4992215;28;20174;-61
2022/05/11 07:33:08;;;;;;;5.37;4.30;;;20.10;99.90;;;;;;4974465;28;20671;-62
2022/05/11 07:35:34;;;;;;;5.20;4.60;;;20.00;99.90;;;;;;4991709;28;20251;-61
2022/05/11 07:37:59;;;;;;;5.00;4.20;;;19.90;99.90;;;;;;4992053;28;20177;-62
2022/05/11 07:40:26;;;;;;;5.57;4.53;;;19.90;99.90;;;;;;4992065;28;20253;-61
2022/05/11 07:42:51;;;;;;;5.23;4.70;;;20.00;99.90;;;;;;4989275;28;20205;-61
2022/05/11 07:45:17;;;;;;;4.93;4.50;;;20.10;99.90;;;;;;4984877;28;20205;-61
2022/05/11 07:47:43;;;;;;;4.60;4.20;;;20.20;99.90;;;;;;4991051;28;20228;-62
2022/05/11 07:50:13;;;;;;;5.07;4.37;;;20.30;99.90;;;;;;4991919;28;20172;-60
2022/05/11 07:52:39;;;;;;;5.40;4.47;;;20.30;99.90;;;;;;4991775;28;20256;-59
2022/05/11 07:55:06;;;;;;;5.13;4.63;;;20.40;99.90;;;;;;4990546;28;20220;-61
2022/05/11 08:00:16;;;;;;;4.77;4.30;;;20.40;99.90;;;;;;4994970;28;20704;-61
2022/05/11 08:02:41;;;;;;;5.40;4.80;;;20.30;99.90;;;;;;4995437;28;20193;-59
2022/05/11 08:05:10;;;;;;;4.97;4.57;;;20.40;99.90;;;;;;4994928;28;20198;-61
2022/05/11 08:07:52;;;;;;;5.30;4.53;;;20.50;99.90;;;;;;4995252;28;20643;-60
2022/05/11 08:10:22;;;;;;;5.87;4.50;;;20.50;99.90;;;;;;4995390;28;20204;-61
2022/05/11 08:12:49;;;;;;;5.33;4.83;;;20.60;99.90;;;;;;4995369;28;20212;-59
2022/05/11 08:15:16;;;;;;;5.93;4.53;;;20.60;99.90;;;;;;4995001;28;20267;-61
2022/05/11 08:17:43;;;;;;;5.00;4.50;;;20.70;99.90;;;;;;4995046;28;20184;-61
2022/05/11 08:20:16;;;;;;;5.43;4.43;;;20.90;99.90;;;;;;4995057;28;20236;-61
2022/05/11 08:22:44;;;;;;;5.20;4.70;;;21.10;99.90;;;;;;4995036;28;20221;-61
2022/05/11 08:25:10;;;;;;;4.38;3.97;;;21.30;99.90;;;;;;4994725;28;20193;-61
2022/05/11 08:27:37;;;;;;;5.10;4.53;;;21.40;99.90;;;;;;4993818;28;20729;-61
2022/05/11 08:35:33;;;;;;;4.05;3.72;;;21.80;99.90;;;;;;4994567;28;20196;-61
2022/05/11 08:37:59;;;;;;;4.80;4.32;;;22.00;99.90;;;;;;4993606;28;20689;-62
2022/05/11 08:40:39;;;;;;;4.95;4.55;;;22.10;99.90;;;;;;4994799;28;20216;-61
2022/05/11 08:43:10;;;;;;;4.60;4.20;;;22.40;99.90;;;;;;4995182;28;20199;-61
2022/05/11 08:45:44;;;;;;;5.43;4.70;;;22.50;99.90;;;;;;4994284;28;20208;-61
2022/05/11 08:48:26;;;;;;;4.57;4.18;;;22.50;99.90;;;;;;4994374;28;20181;-61
2022/05/11 08:50:51;;;;;;;5.28;4.68;;;22.30;99.90;;;;;;4994488;28;20200;-61
2022/05/11 08:53:37;;;;;;;4.78;4.38;;;22.50;99.90;;;;;;4976777;28;20678;-61
2022/05/11 08:56:12;;;;;;;6.28;4.50;;;22.70;99.90;;;;;;4994608;28;20232;-60
2022/05/11 08:58:52;;;;;;;4.68;4.25;;;22.80;99.90;;;;;;4994568;28;20606;-61
2022/05/11 09:01:28;;;;;;;5.38;4.75;;;23.00;99.90;;;;;;4994441;28;20170;-61
2022/05/11 09:03:54;;;;;;;4.65;4.25;;;23.00;99.90;;;;;;4993900;28;20201;-62
2022/05/11 09:06:27;;;;;;;4.40;4.00;;;23.20;99.90;;;;;;4994192;28;20172;-61
2022/05/11 09:08:58;;;;;;;6.90;4.43;;;23.20;99.90;;;;;;4994232;28;20165;-61
2022/05/11 09:11:41;;;;;;;4.85;4.32;;;23.30;99.90;;;;;;4993488;28;20240;-62
2022/05/11 09:14:07;;;;;;;4.80;4.40;;;23.40;99.90;;;;;;4993748;28;20213;-61
2022/05/11 09:16:39;;;;;;;4.90;4.50;;;23.40;99.90;;;;;;4994070;28;20658;-61
2022/05/11 09:19:23;;;;;;;4.80;4.40;;;23.60;99.90;;;;;;4993881;28;20170;-59
2022/05/11 09:22:17;;;;;;;4.80;4.30;;;23.60;99.90;;;;;;4994059;28;20248;-61
2022/05/11 09:24:56;;;;;;;4.78;4.38;;;23.50;99.90;;;;;;4993511;28;20209;-61
2022/05/11 09:27:26;;;;;;;4.60;4.07;;;23.50;99.90;;;;;;4993855;28;20165;-61
2022/05/11 09:30:01;;;;;;;5.10;4.05;;;23.90;99.90;;;;;;4993850;28;20651;-61
2022/05/11 09:32:29;;;;;;;5.20;4.18;;;24.10;99.90;;;;;;4992587;28;20634;-59
2022/05/11 09:34:55;;;;;;;5.65;4.50;;;24.20;99.90;;;;;;4993296;28;20253;-61
2022/05/11 09:37:33;;;;;;;5.38;4.93;;;24.40;99.90;;;;;;4993537;28;20634;-61
2022/05/11 09:40:20;;;;;;;5.40;4.90;;;24.30;99.90;;;;;;4993507;28;20187;-57
2022/05/11 09:42:59;;;;;;;4.50;4.10;;;24.00;99.90;;;;;;4974153;28;20229;-61
2022/05/11 09:45:48;;;;;;;5.25;4.78;;;23.90;99.90;;;;;;4973795;28;20200;-61
2022/05/11 09:48:23;;;;;;;4.90;4.50;;;24.10;99.90;;;;;;4973964;28;20206;-61
2022/05/11 09:51:14;;;;;;;4.95;4.55;;;24.40;99.90;;;;;;4976553;28;20177;-61
2022/05/11 09:53:52;;;;;;;5.18;4.60;;;24.60;99.90;;;;;;4977940;28;20205;-61
2022/05/11 09:56:33;;;;;;;5.53;4.25;;;24.80;99.90;;;;;;4973849;28;20178;-61
2022/05/11 09:59:18;;;;;;;4.90;4.50;;;25.00;99.90;;;;;;4973978;28;20177;-61
2022/05/11 10:01:45;;;;;;;4.82;4.20;;;25.00;99.90;;;;;;4972803;28;20170;-61
2022/05/11 10:04:12;;;;;;;4.60;4.10;;;24.90;99.90;;;;;;4973121;28;20206;-62
2022/05/11 10:06:50;;;;;;;4.63;4.22;;;25.00;99.90;;;;;;4973725;28;20715;-61
2022/05/11 10:09:35;;;;;;;5.72;4.90;;;25.00;99.90;;;;;;4973694;28;20174;-61
2022/05/11 10:12:03;;;;;;;5.13;4.63;;;25.10;99.90;;;;;;4973707;28;20180;-61
2022/05/11 10:23:13;;;;;;;5.65;4.97;;;25.30;99.90;;;;;;4973713;28;20208;-61
2022/05/11 10:25:41;;;;;;;4.75;4.35;;;25.10;99.90;;;;;;4973153;28;20197;-61
2022/05/11 10:28:22;;;;;;;5.00;4.40;;;25.20;99.90;;;;;;4973418;28;20170;-61
2022/05/11 10:31:06;;;;;;;5.97;5.05;;;25.30;99.90;;;;;;4973421;28;20170;-62
2022/05/11 10:33:57;;;;;;;6.25;5.68;;;25.40;99.90;;;;;;4973105;28;20201;-59
2022/05/11 10:36:44;;;;;;;5.43;4.82;;;25.30;99.90;;;;;;4973174;28;20221;-61
2022/05/11 10:39:32;;;;;;;5.70;5.20;;;25.50;99.90;;;;;;4973359;28;20682;-59
2022/05/11 10:42:02;;;;;;;5.25;4.70;;;25.50;99.90;;;;;;4973274;28;20185;-61
2022/05/11 10:44:59;;;;;;;5.00;4.60;;;25.60;99.90;;;;;;4972766;28;20708;-59
2022/05/11 10:47:46;;;;;;;4.90;4.50;;;25.90;99.90;;;;;;4973391;28;20510;-62
2022/05/11 10:50:18;;;;;;;5.03;4.63;;;25.80;99.90;;;;;;4973259;28;20197;-62
2022/05/11 10:53:08;;;;;;;5.85;4.75;;;25.70;99.90;;;;;;4972946;28;20238;-62
2022/05/11 10:55:52;;;;;;;4.35;3.95;;;25.60;99.80;;;;;;4972821;28;20210;-59
2022/05/11 10:58:37;;;;;;;6.60;4.60;;;25.80;99.90;;;;;;4972964;28;20188;-61
2022/05/11 11:01:13;;;;;;;4.95;4.50;;;25.80;99.50;;;;;;4973047;28;20236;-61
2022/05/11 11:03:42;;;;;;;5.32;4.05;;;25.90;99.90;;;;;;4972503;28;20277;-61
2022/05/11 11:09:15;;;;;;;4.78;4.18;;;25.90;99.90;;;;;;4973068;28;20679;-62
2022/05/11 11:11:43;;;;;;;4.72;4.32;;;26.10;99.90;;;;;;4972961;28;20178;-61
2022/05/11 11:14:10;;;;;;;4.57;4.18;;;25.90;99.90;;;;;;4972507;28;20712;-61
2022/05/11 11:16:38;;;;;;;5.88;4.95;;;26.00;99.90;;;;;;4972833;28;20651;-61
2022/05/11 11:19:06;;;;;;;4.78;4.38;;;25.90;99.90;;;;;;4971602;28;20257;-61
2022/05/11 11:21:33;;;;;;;8.77;4.68;;;25.70;99.70;;;;;;4972843;28;20181;-61
2022/05/11 11:24:22;;;;;;;4.82;4.35;;;25.60;99.90;;;;;;4972484;28;20568;-61
2022/05/11 11:26:54;;;;;;;4.63;4.22;;;25.80;99.90;;;;;;4972870;28;20536;-60
2022/05/11 11:29:23;;;;;;;4.68;4.28;;;25.90;99.30;;;;;;4972827;28;20166;-62
2022/05/11 11:31:58;;;;;;;5.20;4.60;;;25.80;99.10;;;;;;4972801;28;20170;-61
2022/05/11 11:34:39;;;;;;;4.70;4.28;;;25.80;99.50;;;;;;4974077;28;20209;-63
2022/05/11 11:37:36;;;;;;;5.07;4.53;;;25.80;98.50;;;;;;4978947;28;20264;-61
2022/05/11 11:40:13;;;;;;;4.43;4.03;;;26.10;99.30;;;;;;4980027;28;20194;-61
2022/05/11 11:42:46;;;;;;;5.43;4.38;;;26.30;99.90;;;;;;4997440;28;20209;-62
2022/05/11 11:45:37;;;;;;;5.47;4.15;;;26.40;99.50;;;;;;4994961;28;20239;-62
2022/05/11 11:48:21;;;;;;;4.13;3.83;;;26.60;98.80;;;;;;4995510;28;20185;-62
2022/05/11 11:50:58;;;;;;;4.07;3.72;;;26.90;99.90;;;;;;4995311;28;20192;-62
2022/05/11 11:53:40;;;;;;;8.02;4.20;;;26.90;99.90;;;;;;4995070;28;20617;-62
2022/05/11 11:56:24;;;;;;;4.63;3.78;;;27.00;98.20;;;;;;4995451;28;20280;-62
2022/05/11 11:59:08;;;;;;;4.05;3.67;;;27.10;99.90;;;;;;4995020;28;20177;-62
2022/05/11 12:01:46;;;;;;;5.05;4.18;;;26.90;99.90;;;;;;4975848;28;20254;-62
2022/05/11 12:04:29;;;;;;;4.03;3.60;;;26.90;98.30;;;;;;4975286;28;20205;-62
2022/05/11 12:15:33;;;;;;;4.38;3.60;;;27.00;98.80;;;;;;4989018;28;20185;-61
2022/05/11 12:18:00;;;;;;;3.55;3.25;;;27.10;97.50;;;;;;4995041;28;20181;-63
2022/05/11 12:20:26;;;;;;;3.50;3.20;;;27.20;98.00;;;;;;4994982;28;20177;-61
2022/05/11 12:22:55;;;;;;;3.17;2.95;;;27.30;98.40;;;;;;4994847;28;20201;-62
2022/05/11 12:25:23;;;;;;;5.10;3.15;;;27.00;95.60;;;;;;4994590;28;20621;-61
2022/05/11 12:27:49;;;;;;;3.00;2.80;;;26.90;96.40;;;;;;4994672;28;20237;-60
2022/05/11 12:30:26;;;;;;;3.88;2.70;;;26.50;94.30;;;;;;4994845;28;20165;-58
2022/05/11 12:33:01;;;;;;;3.25;2.95;;;26.30;95.30;;;;;;4994737;28;20189;-62
2022/05/11 12:35:29;;;;;;;3.10;2.65;;;26.20;93.90;;;;;;4994365;28;20168;-61
2022/05/11 12:38:04;;;;;;;14.32;3.28;;;26.20;94.60;;;;;;4994626;28;20638;-61
2022/05/11 12:40:34;;;;;;;4.18;2.90;;;26.20;95.40;;;;;;4994595;28;20200;-62
2022/05/11 12:43:24;;;;;;;5.20;3.00;;;26.10;95.90;;;;;;4994510;28;20197;-62
2022/05/11 12:45:52;;;;;;;3.15;2.95;;;25.90;95.80;;;;;;4993196;28;20235;-62
2022/05/11 12:48:21;;;;;;;3.90;2.97;;;25.80;96.40;;;;;;4994269;28;20192;-61
2022/05/11 12:51:08;;;;;;;3.22;2.92;;;25.90;94.50;;;;;;4993956;28;20169;-60
2022/05/11 12:53:39;;;;;;;3.03;2.83;;;25.90;96.20;;;;;;4993898;28;20196;-62
2022/05/11 12:56:13;;;;;;;3.22;2.70;;;26.10;96.20;;;;;;4994289;28;20224;-61
2022/05/11 12:58:56;;;;;;;4.35;3.20;;;26.20;95.50;;;;;;4994301;28;20189;-60
2022/05/11 13:01:24;;;;;;;4.53;3.20;;;26.20;97.00;;;;;;4994233;28;20177;-62
2022/05/11 13:03:52;;;;;;;3.67;3.00;;;26.50;96.40;;;;;;4993731;28;20189;-62
2022/05/11 13:06:23;;;;;;;3.60;2.95;;;26.60;94.00;;;;;;4994084;28;20196;-61
2022/05/11 13:08:52;;;;;;;3.42;2.92;;;26.60;96.30;;;;;;4994405;28;20509;-62
2022/05/11 13:11:20;;;;;;;2.97;2.67;;;26.80;95.60;;;;;;4994039;28;20177;-61
2022/05/11 13:13:51;;;;;;;5.20;2.92;;;26.60;94.60;;;;;;4993494;28;20287;-62
2022/05/11 13:16:24;;;;;;;3.33;3.00;;;26.80;95.50;;;;;;4993983;28;20170;-63
2022/05/11 13:18:50;;;;;;;3.20;2.90;;;26.70;94.60;;;;;;4993643;28;20170;-56
2022/05/11 13:21:30;;;;;;;4.40;2.78;;;26.70;94.60;;;;;;4993791;28;20256;-62
2022/05/11 13:23:55;;;;;;;3.08;2.80;;;26.70;94.30;;;;;;4993299;28;20200;-60
2022/05/11 13:26:43;;;;;;;2.97;2.72;;;26.80;94.50;;;;;;4993699;28;20165;-62
2022/05/11 13:29:26;;;;;;;2.90;2.70;;;27.00;95.60;;;;;;4993799;28;20166;-62
2022/05/11 13:32:10;;;;;;;3.08;2.88;;;27.10;94.00;;;;;;4993774;28;20196;-62
2022/05/11 13:34:41;;;;;;;3.33;2.67;;;27.10;93.90;;;;;;4993089;28;20197;-62
2022/05/11 13:37:27;;;;;;;3.47;2.60;;;27.30;95.00;;;;;;4993659;28;20170;-62
2022/05/11 13:39:53;;;;;;;3.20;2.90;;;27.50;94.90;;;;;;4993616;28;20181;-62
2022/05/11 13:42:27;;;;;;;3.38;2.90;;;27.50;93.10;;;;;;4993484;28;20673;-62
2022/05/11 13:45:02;;;;;;;3.63;2.72;;;27.30;92.50;;;;;;4992814;28;20232;-62